createdAt,value
2023-01-04T00:01:37.850Z,2.90
2023-01-04T00:03:40.442Z,2.90
2023-01-04T00:05:42.419Z,2.90
2023-01-04T00:07:44.096Z,2.90
2023-01-04T00:09:45.841Z,2.80
2023-01-04T00:11:47.514Z,2.80
2023-01-04T00:13:51.491Z,2.70
2023-01-04T00:15:53.186Z,2.70
2023-01-04T00:17:55.086Z,2.70
2023-01-04T00:19:56.754Z,2.70
2023-01-04T00:21:58.451Z,2.70
2023-01-04T00:24:01.525Z,2.70
2023-01-04T00:26:14.114Z,2.70
2023-01-04T00:28:16.427Z,2.80
2023-01-04T00:30:18.490Z,2.80
2023-01-04T00:32:20.158Z,2.80
2023-01-04T00:34:21.988Z,2.70
2023-01-04T00:36:24.571Z,2.70
2023-01-04T00:38:26.263Z,2.70
2023-01-04T00:40:27.900Z,2.70
2023-01-04T00:42:29.521Z,2.70
2023-01-04T00:44:34.545Z,2.80
2023-01-04T00:46:37.172Z,2.80
2023-01-04T00:48:40.458Z,2.70
2023-01-04T00:50:44.543Z,2.70
2023-01-04T00:52:49.132Z,2.60
2023-01-04T00:54:50.829Z,2.70
2023-01-04T00:56:52.543Z,2.60
2023-01-04T00:58:59.012Z,2.70
2023-01-04T01:01:06.301Z,2.70
2023-01-04T01:03:08.524Z,2.80
2023-01-04T01:05:10.472Z,2.80
2023-01-04T01:07:12.155Z,2.80
2023-01-04T01:09:14.403Z,2.90
2023-01-04T01:11:16.243Z,2.90
2023-01-04T01:13:18.223Z,2.90
2023-01-04T01:15:19.890Z,2.80
2023-01-04T01:17:21.570Z,2.80
2023-01-04T01:19:23.751Z,2.80
2023-01-04T01:21:27.490Z,2.70
2023-01-04T01:23:29.723Z,2.70
2023-01-04T01:25:34.491Z,2.70
2023-01-04T01:27:36.243Z,2.80
2023-01-04T01:29:37.995Z,2.80
2023-01-04T01:31:41.468Z,2.70
2023-01-04T01:33:45.396Z,2.70
2023-01-04T01:35:47.091Z,2.60
2023-01-04T01:37:48.755Z,2.60
2023-01-04T01:39:50.399Z,2.60
2023-01-04T01:41:52.094Z,2.60
2023-01-04T01:44:00.488Z,2.60
2023-01-04T01:46:02.552Z,2.60
2023-01-04T01:48:11.124Z,2.70
2023-01-04T01:50:29.458Z,2.70
2023-01-04T01:52:36.773Z,2.70
2023-01-04T01:54:52.271Z,2.60
2023-01-04T01:56:57.972Z,2.60
2023-01-04T01:59:01.052Z,2.60
2023-01-04T02:01:03.621Z,2.70
2023-01-04T02:03:14.180Z,2.70
2023-01-04T02:05:19.364Z,2.70
2023-01-04T02:07:25.003Z,2.80
2023-01-04T02:09:26.763Z,2.80
2023-01-04T02:11:28.857Z,2.90
2023-01-04T02:13:52.471Z,2.80
2023-01-04T02:16:06.254Z,2.70
2023-01-04T02:18:12.708Z,2.70
2023-01-04T02:20:20.283Z,2.60
2023-01-04T02:22:21.957Z,2.50
2023-01-04T02:24:33.667Z,2.40
2023-01-04T02:26:52.967Z,2.30
2023-01-04T02:29:25.552Z,2.30
2023-01-04T02:31:51.395Z,2.20
2023-01-04T02:34:05.083Z,2.20
2023-01-04T02:36:37.705Z,2.20
2023-01-04T02:38:54.586Z,2.20
2023-01-04T02:41:02.656Z,2.20
2023-01-04T02:43:50.179Z,2.10
2023-01-04T02:46:02.519Z,2.10
2023-01-04T02:48:27.370Z,2.10
2023-01-04T02:50:37.248Z,2.10
2023-01-04T02:52:39.180Z,2.10
2023-01-04T02:54:42.141Z,2.10
2023-01-04T02:56:58.360Z,2.20
2023-01-04T02:59:20.621Z,2.20
2023-01-04T03:02:05.979Z,2.20
2023-01-04T03:04:50.675Z,2.20
2023-01-04T03:07:20.497Z,2.30
2023-01-04T03:09:26.792Z,2.30
2023-01-04T03:12:01.159Z,2.30
2023-01-04T03:14:31.867Z,2.30
2023-01-04T03:16:37.582Z,2.20
2023-01-04T03:18:44.152Z,2.20
2023-01-04T03:20:48.448Z,2.10
2023-01-04T03:23:21.601Z,2.10
2023-01-04T03:25:46.391Z,2.10
2023-01-04T03:28:09.182Z,2.00
2023-01-04T03:30:32.698Z,2.00
2023-01-04T03:33:02.962Z,2.00
2023-01-04T03:35:22.973Z,2.00
2023-01-04T03:37:35.026Z,2.00
2023-01-04T03:40:18.625Z,2.00
2023-01-04T03:42:54.264Z,2.00
2023-01-04T03:45:30.668Z,2.00
2023-01-04T03:48:01.801Z,2.00
2023-01-04T03:50:12.339Z,2.00
2023-01-04T03:52:16.125Z,2.00
2023-01-04T03:54:29.099Z,1.90
2023-01-04T03:56:32.466Z,1.90
2023-01-04T03:58:35.087Z,1.90
2023-01-04T04:00:36.851Z,1.90
2023-01-04T04:02:41.034Z,1.80
2023-01-04T04:05:01.666Z,1.90
2023-01-04T04:07:21.804Z,1.90
2023-01-04T04:09:23.505Z,1.80
2023-01-04T04:11:31.405Z,1.80
2023-01-04T04:13:33.082Z,1.80
2023-01-04T04:15:36.934Z,1.80
2023-01-04T04:17:38.626Z,1.80
2023-01-04T04:19:40.287Z,1.80
2023-01-04T04:21:42.059Z,1.90
2023-01-04T04:23:44.520Z,1.80
2023-01-04T04:25:46.200Z,2.00
2023-01-04T04:27:48.007Z,2.10
2023-01-04T04:29:49.841Z,2.10
2023-01-04T04:31:52.242Z,2.10
2023-01-04T04:33:54.238Z,2.10
2023-01-04T04:35:56.364Z,2.20
2023-01-04T04:37:58.137Z,2.40
2023-01-04T04:40:00.003Z,2.40
2023-01-04T04:42:01.899Z,2.30
2023-01-04T04:44:04.056Z,2.30
2023-01-04T04:46:06.276Z,2.30
2023-01-04T04:48:08.019Z,2.30
2023-01-04T04:50:09.821Z,2.30
2023-01-04T04:52:11.735Z,2.50
2023-01-04T04:54:19.568Z,2.60
2023-01-04T04:56:21.551Z,2.70
2023-01-04T04:58:23.290Z,2.90
2023-01-04T05:00:24.976Z,2.90
2023-01-04T05:02:27.046Z,3.00
2023-01-04T05:04:28.836Z,3.20
2023-01-04T05:06:30.976Z,3.20
2023-01-04T05:08:32.888Z,3.30
2023-01-04T05:10:34.660Z,3.30
2023-01-04T05:12:57.943Z,3.40
2023-01-04T05:15:00.099Z,3.30
2023-01-04T05:17:01.959Z,3.30
2023-01-04T05:19:04.360Z,3.30
2023-01-04T05:21:06.489Z,3.20
2023-01-04T05:23:10.064Z,3.20
2023-01-04T05:25:12.386Z,3.20
2023-01-04T05:27:14.087Z,3.20
2023-01-04T05:29:45.070Z,3.10
2023-01-04T05:31:46.978Z,3.20
2023-01-04T05:33:48.781Z,3.20
2023-01-04T05:35:51.357Z,3.30
2023-01-04T05:37:53.251Z,3.30
2023-01-04T05:39:54.961Z,3.30
2023-01-04T05:42:15.474Z,3.30
2023-01-04T05:44:17.200Z,3.40
2023-01-04T05:46:18.939Z,3.40
2023-01-04T05:48:22.027Z,3.40
2023-01-04T05:50:24.462Z,3.40
2023-01-04T05:52:26.596Z,3.40
2023-01-04T05:54:28.291Z,3.40
2023-01-04T05:56:30.000Z,3.50
2023-01-04T05:58:31.693Z,3.50
2023-01-04T06:00:33.437Z,3.50
2023-01-04T06:02:35.234Z,3.50
2023-01-04T06:04:36.940Z,3.50
2023-01-04T06:06:38.604Z,3.50
2023-01-04T06:08:40.300Z,3.50
2023-01-04T06:10:42.030Z,3.60
2023-01-04T06:12:43.794Z,3.50
2023-01-04T06:14:45.567Z,3.60
2023-01-04T06:16:47.360Z,3.60
2023-01-04T06:18:49.191Z,3.70
2023-01-04T06:20:51.683Z,3.70
2023-01-04T06:22:53.550Z,3.70
2023-01-04T06:24:55.417Z,3.70
2023-01-04T06:26:57.224Z,3.60
2023-01-04T06:28:59.144Z,3.70
2023-01-04T06:31:08.658Z,3.70
2023-01-04T06:33:11.374Z,3.80
2023-01-04T06:35:13.311Z,3.70
2023-01-04T06:37:15.281Z,3.80
2023-01-04T06:39:17.238Z,3.90
2023-01-04T06:41:19.186Z,3.90
2023-01-04T06:43:20.867Z,4.00
2023-01-04T06:45:22.705Z,4.00
2023-01-04T06:47:24.397Z,4.00
2023-01-04T06:49:26.352Z,4.00
2023-01-04T06:51:28.183Z,4.00
2023-01-04T06:53:29.940Z,4.10
2023-01-04T06:55:31.970Z,4.10
2023-01-04T06:57:33.847Z,4.10
2023-01-04T06:59:35.646Z,4.20
2023-01-04T07:01:37.400Z,4.30
2023-01-04T07:03:39.513Z,4.30
2023-01-04T07:05:41.211Z,4.30
2023-01-04T07:07:42.983Z,4.20
2023-01-04T07:09:44.808Z,4.40
2023-01-04T07:11:46.532Z,4.50
2023-01-04T07:13:48.145Z,4.60
2023-01-04T07:15:49.915Z,4.70
2023-01-04T07:17:51.876Z,4.70
2023-01-04T07:19:53.809Z,4.70
2023-01-04T07:21:55.829Z,4.80
2023-01-04T07:23:57.558Z,4.80
2023-01-04T07:26:02.891Z,4.80
2023-01-04T07:28:04.845Z,4.90
2023-01-04T07:30:07.003Z,4.90
2023-01-04T07:32:13.666Z,4.90
2023-01-04T07:34:18.323Z,4.90
2023-01-04T07:36:20.147Z,4.90
2023-01-04T07:38:22.014Z,4.80
2023-01-04T07:40:23.722Z,4.70
2023-01-04T07:42:25.501Z,4.60
2023-01-04T07:44:28.270Z,4.40
2023-01-04T07:46:30.051Z,4.30
2023-01-04T07:48:32.055Z,4.30
2023-01-04T07:50:33.699Z,4.30
2023-01-04T07:52:35.357Z,4.30
2023-01-04T07:54:37.105Z,4.30
2023-01-04T07:56:38.935Z,4.20
2023-01-04T07:58:42.063Z,4.10
2023-01-04T08:00:43.719Z,4.10
2023-01-04T08:02:45.651Z,4.00
2023-01-04T08:04:47.481Z,4.00
2023-01-04T08:06:49.472Z,3.90
2023-01-04T08:08:51.201Z,3.90
2023-01-04T08:10:53.191Z,3.90
2023-01-04T08:12:54.981Z,3.90
2023-01-04T08:14:57.000Z,3.90
2023-01-04T08:16:58.767Z,4.00
2023-01-04T08:19:06.661Z,4.00
2023-01-04T08:21:10.473Z,4.10
2023-01-04T08:23:12.336Z,4.10
2023-01-04T08:25:14.176Z,4.10
2023-01-04T08:27:15.817Z,4.10
2023-01-04T08:29:17.573Z,4.10
2023-01-04T08:31:22.304Z,4.10
2023-01-04T08:33:24.593Z,4.10
2023-01-04T08:35:26.339Z,4.10
2023-01-04T08:37:28.994Z,4.10
2023-01-04T08:39:35.513Z,4.10
2023-01-04T08:42:02.627Z,4.10
2023-01-04T08:44:09.439Z,4.10
2023-01-04T08:46:12.583Z,4.20
2023-01-04T08:48:17.149Z,4.30
2023-01-04T08:50:22.662Z,4.30
2023-01-04T08:52:24.548Z,4.40
2023-01-04T08:54:26.374Z,4.40
2023-01-04T08:56:28.123Z,4.50
2023-01-04T08:58:31.961Z,4.50
2023-01-04T09:00:33.687Z,4.40
2023-01-04T09:02:35.574Z,4.40
2023-01-04T09:04:37.637Z,4.40
2023-01-04T09:06:40.622Z,4.50
2023-01-04T09:08:44.239Z,4.50
2023-01-04T09:10:46.134Z,4.50
2023-01-04T09:12:48.080Z,4.60
2023-01-04T09:14:49.761Z,4.60
2023-01-04T09:16:51.861Z,4.70
2023-01-04T09:18:55.310Z,4.80
2023-01-04T09:20:57.714Z,4.80
2023-01-04T09:22:59.701Z,4.90
2023-01-04T09:25:01.795Z,4.80
2023-01-04T09:27:04.822Z,4.90
2023-01-04T09:29:06.800Z,4.90
2023-01-04T09:31:11.403Z,4.90
2023-01-04T09:33:13.082Z,5.00
2023-01-04T09:35:15.006Z,5.10
2023-01-04T09:37:16.773Z,5.10
2023-01-04T09:39:22.954Z,5.20
2023-01-04T09:41:30.215Z,5.30
2023-01-04T09:43:43.843Z,5.30
2023-01-04T09:45:47.672Z,5.30
2023-01-04T09:47:58.216Z,5.40
2023-01-04T09:50:05.604Z,5.50
2023-01-04T09:52:17.405Z,5.50
2023-01-04T09:54:23.332Z,5.60
2023-01-04T09:56:36.658Z,5.60
2023-01-04T09:58:42.397Z,5.60
2023-01-04T10:00:51.499Z,5.60
2023-01-04T10:03:00.373Z,5.60
2023-01-04T10:05:03.490Z,5.70
2023-01-04T10:07:05.645Z,5.70
2023-01-04T10:09:12.956Z,5.70
2023-01-04T10:11:28.800Z,5.80
2023-01-04T10:14:01.410Z,5.70
2023-01-04T10:16:30.237Z,5.80
2023-01-04T10:19:28.687Z,5.80
2023-01-04T10:21:34.875Z,5.90
2023-01-04T10:23:51.929Z,5.90
2023-01-04T10:26:00.424Z,5.90
2023-01-04T10:28:23.860Z,6.00
2023-01-04T10:30:50.431Z,6.00
2023-01-04T10:33:12.954Z,6.10
2023-01-04T10:35:26.268Z,6.10
2023-01-04T10:37:35.572Z,6.10
2023-01-04T10:39:37.527Z,6.10
2023-01-04T10:41:58.539Z,6.20
2023-01-04T10:44:14.357Z,6.30
2023-01-04T10:46:36.561Z,6.30
2023-01-04T10:48:51.462Z,6.40
2023-01-04T10:51:09.671Z,6.40
2023-01-04T10:53:20.563Z,6.50
2023-01-04T10:55:40.249Z,6.50
2023-01-04T10:58:28.164Z,6.60
2023-01-04T11:01:02.885Z,6.70
2023-01-04T11:03:19.193Z,6.70
2023-01-04T11:05:29.988Z,6.80
2023-01-04T11:07:41.015Z,6.90
2023-01-04T11:09:57.477Z,7.00
2023-01-04T11:12:00.893Z,7.10
2023-01-04T11:14:04.044Z,7.20
2023-01-04T11:16:06.471Z,7.30
2023-01-04T11:18:09.739Z,7.30
2023-01-04T11:20:12.279Z,7.40
2023-01-04T11:22:29.581Z,7.40
2023-01-04T11:24:33.422Z,7.50
2023-01-04T11:26:47.425Z,7.50
2023-01-04T11:29:03.482Z,7.50
2023-01-04T11:31:07.995Z,7.60
2023-01-04T11:33:19.086Z,7.50
2023-01-04T11:35:51.790Z,7.60
2023-01-04T11:38:19.012Z,7.50
2023-01-04T11:40:24.587Z,7.50
2023-01-04T11:42:26.288Z,7.50
2023-01-04T11:44:28.059Z,7.50
2023-01-04T11:46:31.681Z,7.50
2023-01-04T11:48:43.974Z,7.50
2023-01-04T11:50:48.281Z,7.50
2023-01-04T11:52:49.996Z,7.50
2023-01-04T11:54:51.968Z,7.50
2023-01-04T11:57:17.576Z,7.50
2023-01-04T11:59:25.581Z,7.50
2023-01-04T12:01:27.569Z,7.50
2023-01-04T12:03:40.185Z,7.50
2023-01-04T12:05:42.122Z,7.40
2023-01-04T12:07:43.843Z,7.50
2023-01-04T12:09:45.593Z,7.50
2023-01-04T12:11:50.619Z,7.50
2023-01-04T12:13:52.700Z,7.50
2023-01-04T12:16:18.764Z,7.50
2023-01-04T12:18:28.036Z,7.60
2023-01-04T12:20:30.103Z,7.50
2023-01-04T12:22:40.169Z,7.50
2023-01-04T12:24:45.744Z,7.50
2023-01-04T12:26:48.928Z,7.50
2023-01-04T12:29:12.578Z,7.60
2023-01-04T12:31:21.273Z,7.60
2023-01-04T12:33:29.943Z,7.60
2023-01-04T12:36:08.015Z,7.60
2023-01-04T12:38:10.875Z,7.70
2023-01-04T12:40:46.895Z,7.60
2023-01-04T12:43:16.767Z,7.60
2023-01-04T12:45:21.890Z,7.60
2023-01-04T12:47:47.845Z,7.70
2023-01-04T12:49:51.434Z,7.70
2023-01-04T12:54:52.263Z,7.70
2023-01-04T12:57:16.411Z,7.80
2023-01-04T12:59:38.875Z,7.80
2023-01-04T13:02:21.192Z,7.80
2023-01-04T13:04:30.873Z,7.90
2023-01-04T13:06:40.301Z,7.90
2023-01-04T13:08:44.444Z,7.90
2023-01-04T13:10:57.071Z,7.90
2023-01-04T13:13:09.825Z,8.00
2023-01-04T13:15:21.610Z,8.00
2023-01-04T13:17:27.223Z,8.00
2023-01-04T13:19:29.228Z,8.00
2023-01-04T13:21:38.760Z,8.00
2023-01-04T13:23:48.047Z,8.10
2023-01-04T13:25:49.875Z,8.10
2023-01-04T13:28:03.009Z,8.10
2023-01-04T13:30:05.295Z,8.20
2023-01-04T13:32:12.657Z,8.20
2023-01-04T13:34:21.052Z,8.30
2023-01-04T13:36:22.800Z,8.30
2023-01-04T13:38:24.928Z,8.30
2023-01-04T13:40:35.659Z,8.30
2023-01-04T13:42:41.594Z,8.30
2023-01-04T13:47:16.989Z,8.40
2023-01-04T13:49:18.771Z,8.30
2023-01-04T13:51:32.107Z,8.30
2023-01-04T13:53:35.960Z,8.40
2023-01-04T13:55:39.020Z,8.40
2023-01-04T13:57:58.407Z,8.40
2023-01-04T14:00:00.335Z,8.40
2023-01-04T14:02:02.317Z,8.40
2023-01-04T14:04:07.042Z,8.40
2023-01-04T14:06:19.535Z,8.50
2023-01-04T14:08:34.990Z,8.50
2023-01-04T14:10:37.742Z,8.50
2023-01-04T14:12:45.654Z,8.50
2023-01-04T14:14:47.393Z,8.50
2023-01-04T14:16:51.002Z,8.50
2023-01-04T14:18:52.953Z,8.50
2023-01-04T14:20:55.206Z,8.50
2023-01-04T14:22:58.778Z,8.50
2023-01-04T14:25:21.296Z,8.50
2023-01-04T14:27:49.421Z,8.50
2023-01-04T14:29:51.081Z,8.50
2023-01-04T14:31:52.906Z,8.50
2023-01-04T14:33:55.346Z,8.50
2023-01-04T14:36:06.513Z,8.50
2023-01-04T14:38:18.976Z,8.50
2023-01-04T14:40:27.233Z,8.50
2023-01-04T14:42:31.524Z,8.50
2023-01-04T14:44:35.897Z,8.50
2023-01-04T14:46:38.114Z,8.50
2023-01-04T14:48:39.818Z,8.60
2023-01-04T14:50:41.563Z,8.60
2023-01-04T14:52:51.539Z,8.60
2023-01-04T14:54:53.330Z,8.60
2023-01-04T14:56:56.545Z,8.60
2023-01-04T14:58:58.234Z,8.60
2023-01-04T15:00:59.922Z,8.60
2023-01-04T15:03:01.719Z,8.60
2023-01-04T15:05:03.692Z,8.60
2023-01-04T15:07:05.520Z,8.60
2023-01-04T15:09:09.700Z,8.60
2023-01-04T15:11:14.897Z,8.60
2023-01-04T15:13:16.903Z,8.60
2023-01-04T15:15:19.330Z,8.60
2023-01-04T15:17:21.038Z,8.60
2023-01-04T15:19:22.821Z,8.60
2023-01-04T15:21:24.493Z,8.60
2023-01-04T15:23:26.294Z,8.60
2023-01-04T15:25:29.807Z,8.60
2023-01-04T15:27:35.579Z,8.60
2023-01-04T15:29:40.207Z,8.60
2023-01-04T15:31:43.810Z,8.60
2023-01-04T15:33:45.729Z,8.60
2023-01-04T15:35:47.617Z,8.60
2023-01-04T15:37:49.420Z,8.60
2023-01-04T15:39:54.221Z,8.60
2023-01-04T15:42:18.938Z,8.50
2023-01-04T15:44:20.612Z,8.50
2023-01-04T15:46:22.304Z,8.50
2023-01-04T15:48:24.080Z,8.50
2023-01-04T15:50:25.827Z,8.50
2023-01-04T15:52:27.509Z,8.50
2023-01-04T15:54:29.545Z,8.50
2023-01-04T15:56:31.199Z,8.50
2023-01-04T15:58:33.030Z,8.50
2023-01-04T16:00:34.794Z,8.50
2023-01-04T16:02:36.971Z,8.50
2023-01-04T16:04:39.362Z,8.40
2023-01-04T16:06:41.414Z,8.50
2023-01-04T16:08:43.898Z,8.50
2023-01-04T16:10:45.656Z,8.50
2023-01-04T16:12:53.044Z,8.50
2023-01-04T16:14:58.250Z,8.50
2023-01-04T16:17:00.084Z,8.50
2023-01-04T16:19:02.365Z,8.50
2023-01-04T16:21:09.019Z,8.50
2023-01-04T16:23:10.876Z,8.40
2023-01-04T16:25:12.990Z,8.40
2023-01-04T16:27:15.333Z,8.40
2023-01-04T16:29:17.159Z,8.40
2023-01-04T16:31:19.736Z,8.40
2023-01-04T16:33:21.510Z,8.40
2023-01-04T16:35:23.154Z,8.40
2023-01-04T16:37:28.661Z,8.40
2023-01-04T16:41:52.059Z,8.40
2023-01-04T16:43:56.509Z,8.40
2023-01-04T16:46:13.291Z,8.40
2023-01-04T16:48:18.405Z,8.40
2023-01-04T16:50:20.501Z,8.40
2023-01-04T16:52:22.371Z,8.40
2023-01-04T16:54:24.193Z,8.40
2023-01-04T16:56:26.041Z,8.40
2023-01-04T16:58:29.918Z,8.50
2023-01-04T17:00:31.906Z,8.50
2023-01-04T17:02:33.816Z,8.50
2023-01-04T17:04:35.848Z,8.50
2023-01-04T17:06:40.531Z,8.50
2023-01-04T17:08:43.016Z,8.50
2023-01-04T17:10:44.822Z,8.60
2023-01-04T17:12:48.382Z,8.60
2023-01-04T17:15:14.980Z,8.60
2023-01-04T17:17:12.748Z,8.60
2023-01-04T17:19:14.744Z,8.60
2023-01-04T17:21:35.563Z,8.60
2023-01-04T17:23:40.058Z,8.70
2023-01-04T17:25:41.793Z,8.70
2023-01-04T17:27:43.601Z,8.70
2023-01-04T17:29:45.372Z,8.70
2023-01-04T17:31:47.130Z,8.70
2023-01-04T17:33:49.679Z,8.70
2023-01-04T17:35:51.392Z,8.70
2023-01-04T17:37:53.141Z,8.80
2023-01-04T17:39:54.864Z,8.80
2023-01-04T17:41:57.413Z,8.80
2023-01-04T17:44:01.753Z,8.80
2023-01-04T17:46:05.668Z,8.80
2023-01-04T17:48:07.429Z,8.80
2023-01-04T17:50:09.300Z,8.80
2023-01-04T17:52:14.895Z,8.80
2023-01-04T17:54:21.195Z,8.80
2023-01-04T17:56:23.791Z,8.80
2023-01-04T17:58:25.438Z,8.80
2023-01-04T18:00:28.273Z,8.80
2023-01-04T18:02:29.982Z,8.90
2023-01-04T18:04:31.783Z,8.90
2023-01-04T18:06:35.684Z,8.90
2023-01-04T18:08:37.581Z,8.90
2023-01-04T18:11:06.102Z,8.90
2023-01-04T18:13:01.094Z,8.90
2023-01-04T18:15:06.292Z,8.90
2023-01-04T18:17:08.295Z,8.90
2023-01-04T18:19:10.023Z,8.90
2023-01-04T18:21:28.086Z,8.90
2023-01-04T18:23:30.904Z,8.90
2023-01-04T18:25:34.099Z,8.90
2023-01-04T18:27:35.854Z,8.90
2023-01-04T18:29:37.770Z,9.00
2023-01-04T18:31:39.498Z,9.00
2023-01-04T18:33:43.339Z,8.90
2023-01-04T18:35:45.071Z,8.90
2023-01-04T18:37:46.791Z,8.90
2023-01-04T18:39:48.900Z,8.90
2023-01-04T18:41:50.570Z,8.90
2023-01-04T18:44:13.259Z,9.00
2023-01-04T18:46:16.272Z,9.00
2023-01-04T18:48:18.099Z,8.90
2023-01-04T18:50:20.300Z,8.90
2023-01-04T18:52:22.126Z,8.90
2023-01-04T18:54:24.124Z,8.90
2023-01-04T18:56:27.664Z,8.90
2023-01-04T18:58:29.370Z,8.90
2023-01-04T19:00:31.156Z,8.90
2023-01-04T19:02:33.544Z,9.00
2023-01-04T19:04:36.520Z,9.00
2023-01-04T19:06:39.075Z,8.90
2023-01-04T19:08:41.790Z,8.90
2023-01-04T19:10:43.447Z,8.90
2023-01-04T19:12:45.373Z,8.90
2023-01-04T19:14:47.317Z,8.90
2023-01-04T19:16:49.072Z,8.90
2023-01-04T19:18:50.846Z,8.90
2023-01-04T19:20:53.373Z,8.90
2023-01-04T19:22:55.066Z,8.90
2023-01-04T19:24:57.718Z,8.90
2023-01-04T19:27:03.252Z,8.80
2023-01-04T19:29:07.430Z,8.90
2023-01-04T19:31:10.456Z,8.90
2023-01-04T19:33:12.381Z,8.90
2023-01-04T19:35:14.104Z,8.90
2023-01-04T19:37:15.864Z,8.90
2023-01-04T19:39:17.546Z,8.90
2023-01-04T19:41:26.529Z,8.90
2023-01-04T19:43:34.074Z,8.90
2023-01-04T19:45:40.021Z,8.90
2023-01-04T19:47:41.783Z,8.90
2023-01-04T19:49:43.736Z,8.90
2023-01-04T19:51:47.110Z,8.90
2023-01-04T19:53:48.906Z,8.90
2023-01-04T19:55:50.642Z,8.90
2023-01-04T19:57:52.367Z,8.90
2023-01-04T19:59:54.106Z,8.90
2023-01-04T20:01:55.860Z,8.90
2023-01-04T20:03:58.227Z,8.90
2023-01-04T20:06:04.143Z,8.90
2023-01-04T20:08:07.170Z,8.90
2023-01-04T20:10:14.016Z,8.90
2023-01-04T20:12:16.382Z,8.90
2023-01-04T20:14:18.098Z,8.90
2023-01-04T20:16:19.915Z,8.90
2023-01-04T20:18:23.835Z,8.80
2023-01-04T20:20:25.579Z,8.80
2023-01-04T20:22:27.344Z,8.80
2023-01-04T20:24:29.242Z,8.80
2023-01-04T20:26:30.972Z,8.80
2023-01-04T20:28:32.723Z,8.80
2023-01-04T20:30:34.692Z,8.80
2023-01-04T20:32:37.003Z,8.80
2023-01-04T20:34:39.311Z,8.80
2023-01-04T20:36:41.079Z,8.80
2023-01-04T20:38:44.856Z,8.80
2023-01-04T20:40:46.551Z,8.80
2023-01-04T20:43:06.814Z,8.70
2023-01-04T20:45:08.961Z,8.70
2023-01-04T20:47:10.768Z,8.70
2023-01-04T20:49:12.460Z,8.60
2023-01-04T20:51:17.375Z,8.60
2023-01-04T20:53:19.550Z,8.60
2023-01-04T20:55:21.873Z,8.60
2023-01-04T20:57:23.534Z,8.60
2023-01-04T20:59:25.337Z,8.60
2023-01-04T21:01:27.127Z,8.60
2023-01-04T21:03:28.846Z,8.60
2023-01-04T21:05:30.707Z,8.60
2023-01-04T21:07:32.758Z,8.60
2023-01-04T21:09:34.569Z,8.60
2023-01-04T21:11:36.280Z,8.60
2023-01-04T21:13:38.199Z,8.60
2023-01-04T21:15:40.406Z,8.50
2023-01-04T21:17:42.227Z,8.50
2023-01-04T21:19:44.091Z,8.50
2023-01-04T21:21:46.111Z,8.50
2023-01-04T21:23:51.806Z,8.50
2023-01-04T21:25:57.872Z,8.50
2023-01-04T21:28:02.326Z,8.50
2023-01-04T21:30:05.008Z,8.40
2023-01-04T21:32:06.958Z,8.50
2023-01-04T21:34:13.045Z,8.40
2023-01-04T21:36:23.233Z,8.40
2023-01-04T21:38:24.972Z,8.40
2023-01-04T21:40:26.715Z,8.40
2023-01-04T21:42:28.443Z,8.40
2023-01-04T21:44:30.697Z,8.40
2023-01-04T21:46:32.741Z,8.40
2023-01-04T21:48:34.970Z,8.40
2023-01-04T21:50:36.925Z,8.40
2023-01-04T21:52:38.745Z,8.40
2023-01-04T21:54:40.437Z,8.40
2023-01-04T21:56:42.483Z,8.40
2023-01-04T21:58:45.471Z,8.40
2023-01-04T22:00:47.143Z,8.40
2023-01-04T22:02:49.062Z,8.40
2023-01-04T22:04:51.003Z,8.40
2023-01-04T22:06:52.979Z,8.40
2023-01-04T22:08:54.977Z,8.40
2023-01-04T22:10:57.391Z,8.40
2023-01-04T22:12:59.093Z,8.50
2023-01-04T22:15:00.946Z,8.40
2023-01-04T22:17:02.754Z,8.50
2023-01-04T22:19:04.447Z,8.50
2023-01-04T22:21:10.738Z,8.40
2023-01-04T22:23:12.702Z,8.40
2023-01-04T22:25:14.545Z,8.40
2023-01-04T22:27:16.365Z,8.40
2023-01-04T22:29:20.520Z,8.40
2023-01-04T22:31:22.260Z,8.40
2023-01-04T22:33:24.600Z,8.40
2023-01-04T22:35:26.295Z,8.30
2023-01-04T22:37:27.982Z,8.40
2023-01-04T22:39:30.044Z,8.40
2023-01-04T22:41:32.026Z,8.40
2023-01-04T22:43:34.257Z,8.40
2023-01-04T22:45:35.995Z,8.40
2023-01-04T22:47:37.806Z,8.50
2023-01-04T22:49:39.648Z,8.50
2023-01-04T22:51:41.620Z,8.50
2023-01-04T22:53:44.313Z,8.50
2023-01-04T22:56:17.564Z,8.50
2023-01-04T22:58:07.865Z,8.50
2023-01-04T23:00:11.187Z,8.50
2023-01-04T23:02:12.885Z,8.50
2023-01-04T23:04:17.056Z,8.50
2023-01-04T23:06:19.190Z,8.50
2023-01-04T23:08:21.000Z,8.50
2023-01-04T23:10:24.473Z,8.50
2023-01-04T23:12:26.552Z,8.50
2023-01-04T23:14:28.277Z,8.50
2023-01-04T23:16:32.992Z,8.50
2023-01-04T23:18:35.993Z,8.60
2023-01-04T23:20:37.647Z,8.60
2023-01-04T23:22:41.264Z,8.60
2023-01-04T23:24:42.984Z,8.60
2023-01-04T23:26:44.917Z,8.60
2023-01-04T23:28:47.895Z,8.60
2023-01-04T23:30:50.099Z,8.60
2023-01-04T23:32:51.806Z,8.60
2023-01-04T23:34:53.859Z,8.60
2023-01-04T23:36:55.529Z,8.60
2023-01-04T23:38:59.827Z,8.60
2023-01-04T23:41:01.690Z,8.60
2023-01-04T23:43:03.503Z,8.70
2023-01-04T23:45:06.047Z,8.70
2023-01-04T23:47:08.002Z,8.70
2023-01-04T23:49:11.230Z,8.70
2023-01-04T23:51:13.376Z,8.80
2023-01-04T23:53:15.125Z,8.80
2023-01-04T23:55:16.842Z,8.80
2023-01-04T23:57:18.539Z,8.80
2023-01-04T23:59:21.882Z,8.80
